sensor_id;sensor_type;location;lat;lon;timestamp;temperature;humidity
18974;DHT22;9621;48.690;9.466;2023-07-09T00:00:55;16.70;79.00
18974;DHT22;9621;48.690;9.466;2023-07-09T00:03:22;16.60;79.20
18974;DHT22;9621;48.690;9.466;2023-07-09T00:05:49;16.60;79.40
18974;DHT22;9621;48.690;9.466;2023-07-09T00:08:24;16.60;80.10
18974;DHT22;9621;48.690;9.466;2023-07-09T00:10:53;16.50;80.30
18974;DHT22;9621;48.690;9.466;2023-07-09T00:13:21;16.50;79.90
18974;DHT22;9621;48.690;9.466;2023-07-09T00:15:48;16.50;79.80
18974;DHT22;9621;48.690;9.466;2023-07-09T00:18:15;16.50;80.10
18974;DHT22;9621;48.690;9.466;2023-07-09T00:20:42;16.50;80.30
18974;DHT22;9621;48.690;9.466;2023-07-09T00:23:09;16.40;81.20
18974;DHT22;9621;48.690;9.466;2023-07-09T00:25:39;16.40;80.70
18974;DHT22;9621;48.690;9.466;2023-07-09T00:28:13;16.30;80.70
18974;DHT22;9621;48.690;9.466;2023-07-09T00:30:41;16.30;81.70
18974;DHT22;9621;48.690;9.466;2023-07-09T00:33:11;16.30;81.10
18974;DHT22;9621;48.690;9.466;2023-07-09T00:35:40;16.20;81.70
18974;DHT22;9621;48.690;9.466;2023-07-09T00:38:13;16.20;81.30
18974;DHT22;9621;48.690;9.466;2023-07-09T00:40:46;16.10;82.40
18974;DHT22;9621;48.690;9.466;2023-07-09T00:43:16;16.10;82.50
18974;DHT22;9621;48.690;9.466;2023-07-09T00:45:43;16.10;82.20
18974;DHT22;9621;48.690;9.466;2023-07-09T00:48:13;16.00;81.90
18974;DHT22;9621;48.690;9.466;2023-07-09T00:50:47;16.00;82.30
18974;DHT22;9621;48.690;9.466;2023-07-09T00:53:19;16.00;82.90
18974;DHT22;9621;48.690;9.466;2023-07-09T00:55:51;16.00;82.70
18974;DHT22;9621;48.690;9.466;2023-07-09T00:58:21;15.90;82.90
18974;DHT22;9621;48.690;9.466;2023-07-09T01:00:56;15.90;82.80
18974;DHT22;9621;48.690;9.466;2023-07-09T01:03:31;15.90;83.70
18974;DHT22;9621;48.690;9.466;2023-07-09T01:05:59;15.80;83.80
18974;DHT22;9621;48.690;9.466;2023-07-09T01:08:27;15.80;83.10
18974;DHT22;9621;48.690;9.466;2023-07-09T01:10:56;15.80;83.10
18974;DHT22;9621;48.690;9.466;2023-07-09T01:13:25;15.80;83.70
18974;DHT22;9621;48.690;9.466;2023-07-09T01:15:53;15.70;84.30
18974;DHT22;9621;48.690;9.466;2023-07-09T01:18:21;15.70;84.30
18974;DHT22;9621;48.690;9.466;2023-07-09T01:20:50;15.60;84.50
18974;DHT22;9621;48.690;9.466;2023-07-09T01:23:20;15.60;84.50
18974;DHT22;9621;48.690;9.466;2023-07-09T01:25:50;15.50;85.00
18974;DHT22;9621;48.690;9.466;2023-07-09T01:28:20;15.50;85.50
18974;DHT22;9621;48.690;9.466;2023-07-09T01:30:48;15.40;85.30
18974;DHT22;9621;48.690;9.466;2023-07-09T01:33:20;15.40;85.50
18974;DHT22;9621;48.690;9.466;2023-07-09T01:35:47;15.40;85.60
18974;DHT22;9621;48.690;9.466;2023-07-09T01:38:14;15.30;85.90
18974;DHT22;9621;48.690;9.466;2023-07-09T01:40:43;15.30;85.70
18974;DHT22;9621;48.690;9.466;2023-07-09T01:43:12;15.30;86.50
18974;DHT22;9621;48.690;9.466;2023-07-09T01:45:39;15.20;86.40
18974;DHT22;9621;48.690;9.466;2023-07-09T01:48:06;15.20;86.60
18974;DHT22;9621;48.690;9.466;2023-07-09T01:50:39;15.20;87.10
18974;DHT22;9621;48.690;9.466;2023-07-09T01:53:09;15.10;86.90
18974;DHT22;9621;48.690;9.466;2023-07-09T01:55:37;15.00;87.10
18974;DHT22;9621;48.690;9.466;2023-07-09T01:58:05;15.00;87.90
18974;DHT22;9621;48.690;9.466;2023-07-09T02:00:34;15.00;87.90
18974;DHT22;9621;48.690;9.466;2023-07-09T02:03:01;15.00;88.00
18974;DHT22;9621;48.690;9.466;2023-07-09T02:05:31;14.90;88.00
18974;DHT22;9621;48.690;9.466;2023-07-09T02:07:58;14.80;88.70
18974;DHT22;9621;48.690;9.466;2023-07-09T02:10:25;14.90;88.40
18974;DHT22;9621;48.690;9.466;2023-07-09T02:12:52;14.90;88.90
18974;DHT22;9621;48.690;9.466;2023-07-09T02:15:20;14.90;89.20
18974;DHT22;9621;48.690;9.466;2023-07-09T02:17:47;14.80;89.70
18974;DHT22;9621;48.690;9.466;2023-07-09T02:20:14;14.80;89.50
18974;DHT22;9621;48.690;9.466;2023-07-09T02:22:41;14.80;89.50
18974;DHT22;9621;48.690;9.466;2023-07-09T02:25:08;14.80;89.70
18974;DHT22;9621;48.690;9.466;2023-07-09T02:27:36;14.80;90.00
18974;DHT22;9621;48.690;9.466;2023-07-09T02:30:05;14.70;90.10
18974;DHT22;9621;48.690;9.466;2023-07-09T02:32:33;14.70;90.20
18974;DHT22;9621;48.690;9.466;2023-07-09T02:35:00;14.70;90.40
18974;DHT22;9621;48.690;9.466;2023-07-09T02:37:27;14.60;90.40
18974;DHT22;9621;48.690;9.466;2023-07-09T02:39:54;14.60;90.50
18974;DHT22;9621;48.690;9.466;2023-07-09T02:42:23;14.60;90.70
18974;DHT22;9621;48.690;9.466;2023-07-09T02:44:50;14.60;90.70
18974;DHT22;9621;48.690;9.466;2023-07-09T02:47:17;14.60;90.80
18974;DHT22;9621;48.690;9.466;2023-07-09T02:49:46;14.60;90.90
18974;DHT22;9621;48.690;9.466;2023-07-09T02:52:13;14.50;91.20
18974;DHT22;9621;48.690;9.466;2023-07-09T02:54:40;14.50;91.40
18974;DHT22;9621;48.690;9.466;2023-07-09T02:57:07;14.50;91.30
18974;DHT22;9621;48.690;9.466;2023-07-09T02:59:34;14.40;91.40
18974;DHT22;9621;48.690;9.466;2023-07-09T03:02:02;14.40;91.60
18974;DHT22;9621;48.690;9.466;2023-07-09T03:04:29;14.30;92.00
18974;DHT22;9621;48.690;9.466;2023-07-09T03:06:58;14.20;92.20
18974;DHT22;9621;48.690;9.466;2023-07-09T03:09:26;14.20;92.60
18974;DHT22;9621;48.690;9.466;2023-07-09T03:11:53;14.10;92.70
18974;DHT22;9621;48.690;9.466;2023-07-09T03:14:20;14.10;92.90
18974;DHT22;9621;48.690;9.466;2023-07-09T03:16:47;14.00;93.10
18974;DHT22;9621;48.690;9.466;2023-07-09T03:19:14;14.00;93.30
18974;DHT22;9621;48.690;9.466;2023-07-09T03:21:41;14.00;93.40
18974;DHT22;9621;48.690;9.466;2023-07-09T03:24:09;14.00;93.60
18974;DHT22;9621;48.690;9.466;2023-07-09T03:26:36;14.00;94.10
18974;DHT22;9621;48.690;9.466;2023-07-09T03:29:03;13.90;94.10
18974;DHT22;9621;48.690;9.466;2023-07-09T03:31:30;14.00;94.40
18974;DHT22;9621;48.690;9.466;2023-07-09T03:34:00;13.90;94.50
18974;DHT22;9621;48.690;9.466;2023-07-09T03:36:27;13.90;94.80
18974;DHT22;9621;48.690;9.466;2023-07-09T03:38:54;14.00;95.40
18974;DHT22;9621;48.690;9.466;2023-07-09T03:41:22;14.00;95.20
18974;DHT22;9621;48.690;9.466;2023-07-09T03:43:49;13.90;95.60
18974;DHT22;9621;48.690;9.466;2023-07-09T03:46:18;13.90;95.50
18974;DHT22;9621;48.690;9.466;2023-07-09T03:48:45;13.90;95.80
18974;DHT22;9621;48.690;9.466;2023-07-09T03:51:12;13.80;96.00
18974;DHT22;9621;48.690;9.466;2023-07-09T03:53:39;13.80;96.30
18974;DHT22;9621;48.690;9.466;2023-07-09T03:56:06;13.80;96.50
18974;DHT22;9621;48.690;9.466;2023-07-09T03:58:34;13.80;96.70
18974;DHT22;9621;48.690;9.466;2023-07-09T04:01:01;13.80;97.00
18974;DHT22;9621;48.690;9.466;2023-07-09T04:03:28;13.90;97.10
18974;DHT22;9621;48.690;9.466;2023-07-09T04:05:55;14.00;97.40
18974;DHT22;9621;48.690;9.466;2023-07-09T04:08:22;14.10;97.60
18974;DHT22;9621;48.690;9.466;2023-07-09T04:10:53;14.30;97.70
18974;DHT22;9621;48.690;9.466;2023-07-09T04:13:19;14.40;97.80
18974;DHT22;9621;48.690;9.466;2023-07-09T04:15:48;14.60;97.50
18974;DHT22;9621;48.690;9.466;2023-07-09T04:18:15;14.80;97.60
18974;DHT22;9621;48.690;9.466;2023-07-09T04:20:42;15.00;97.30
18974;DHT22;9621;48.690;9.466;2023-07-09T04:23:09;15.30;97.20
18974;DHT22;9621;48.690;9.466;2023-07-09T04:25:37;15.50;97.10
18974;DHT22;9621;48.690;9.466;2023-07-09T04:28:05;15.80;96.80
18974;DHT22;9621;48.690;9.466;2023-07-09T04:30:32;16.10;96.50
18974;DHT22;9621;48.690;9.466;2023-07-09T04:33:00;16.40;96.20
18974;DHT22;9621;48.690;9.466;2023-07-09T04:35:27;16.70;95.70
18974;DHT22;9621;48.690;9.466;2023-07-09T04:37:54;16.90;95.30
18974;DHT22;9621;48.690;9.466;2023-07-09T04:40:21;17.20;95.00
18974;DHT22;9621;48.690;9.466;2023-07-09T04:42:47;17.50;94.60
18974;DHT22;9621;48.690;9.466;2023-07-09T04:45:14;17.80;94.20
18974;DHT22;9621;48.690;9.466;2023-07-09T04:47:41;18.10;93.80
18974;DHT22;9621;48.690;9.466;2023-07-09T04:50:11;18.40;93.40
18974;DHT22;9621;48.690;9.466;2023-07-09T04:52:39;18.70;92.80
18974;DHT22;9621;48.690;9.466;2023-07-09T04:55:06;19.00;92.50
18974;DHT22;9621;48.690;9.466;2023-07-09T04:57:34;19.30;92.10
18974;DHT22;9621;48.690;9.466;2023-07-09T05:00:01;19.60;91.60
18974;DHT22;9621;48.690;9.466;2023-07-09T05:02:30;19.90;91.20
18974;DHT22;9621;48.690;9.466;2023-07-09T05:04:57;20.20;90.80
18974;DHT22;9621;48.690;9.466;2023-07-09T05:07:25;20.50;90.40
18974;DHT22;9621;48.690;9.466;2023-07-09T05:09:52;20.70;89.50
18974;DHT22;9621;48.690;9.466;2023-07-09T05:12:19;21.00;88.70
18974;DHT22;9621;48.690;9.466;2023-07-09T05:14:46;21.30;87.80
18974;DHT22;9621;48.690;9.466;2023-07-09T05:17:13;21.60;86.90
18974;DHT22;9621;48.690;9.466;2023-07-09T05:19:40;21.90;85.80
18974;DHT22;9621;48.690;9.466;2023-07-09T05:22:07;22.20;84.70
18974;DHT22;9621;48.690;9.466;2023-07-09T05:24:35;22.50;83.90
18974;DHT22;9621;48.690;9.466;2023-07-09T05:27:02;22.80;82.50
18974;DHT22;9621;48.690;9.466;2023-07-09T05:29:29;23.10;82.00
18974;DHT22;9621;48.690;9.466;2023-07-09T05:31:56;23.30;80.70
18974;DHT22;9621;48.690;9.466;2023-07-09T05:34:23;23.60;79.40
18974;DHT22;9621;48.690;9.466;2023-07-09T05:36:50;23.80;78.60
18974;DHT22;9621;48.690;9.466;2023-07-09T05:39:16;24.10;77.40
18974;DHT22;9621;48.690;9.466;2023-07-09T05:41:45;24.30;76.70
18974;DHT22;9621;48.690;9.466;2023-07-09T05:44:11;24.50;75.30
18974;DHT22;9621;48.690;9.466;2023-07-09T05:46:38;24.60;74.60
18974;DHT22;9621;48.690;9.466;2023-07-09T05:49:06;24.80;73.60
18974;DHT22;9621;48.690;9.466;2023-07-09T05:51:33;24.90;72.70
18974;DHT22;9621;48.690;9.466;2023-07-09T05:54:00;25.00;72.70
18974;DHT22;9621;48.690;9.466;2023-07-09T05:56:26;25.10;72.30
18974;DHT22;9621;48.690;9.466;2023-07-09T05:58:55;25.10;71.60
18974;DHT22;9621;48.690;9.466;2023-07-09T06:01:23;25.10;70.90
18974;DHT22;9621;48.690;9.466;2023-07-09T06:03:50;25.20;70.60
18974;DHT22;9621;48.690;9.466;2023-07-09T06:06:16;25.30;70.30
18974;DHT22;9621;48.690;9.466;2023-07-09T06:08:43;25.40;70.40
18974;DHT22;9621;48.690;9.466;2023-07-09T06:11:10;25.60;70.20
18974;DHT22;9621;48.690;9.466;2023-07-09T06:13:37;25.70;69.90
18974;DHT22;9621;48.690;9.466;2023-07-09T06:16:06;25.90;69.70
18974;DHT22;9621;48.690;9.466;2023-07-09T06:18:33;26.10;69.40
18974;DHT22;9621;48.690;9.466;2023-07-09T06:21:01;26.30;68.30
18974;DHT22;9621;48.690;9.466;2023-07-09T06:23:29;26.40;68.20
18974;DHT22;9621;48.690;9.466;2023-07-09T06:25:56;26.70;67.50
18974;DHT22;9621;48.690;9.466;2023-07-09T06:28:25;26.90;67.10
18974;DHT22;9621;48.690;9.466;2023-07-09T06:30:54;27.10;66.60
18974;DHT22;9621;48.690;9.466;2023-07-09T06:33:23;27.40;66.10
18974;DHT22;9621;48.690;9.466;2023-07-09T06:35:52;27.50;64.70
18974;DHT22;9621;48.690;9.466;2023-07-09T06:38:20;27.60;63.90
18974;DHT22;9621;48.690;9.466;2023-07-09T06:40:47;27.70;63.80
18974;DHT22;9621;48.690;9.466;2023-07-09T06:43:14;27.80;63.50
18974;DHT22;9621;48.690;9.466;2023-07-09T06:45:48;27.90;63.10
18974;DHT22;9621;48.690;9.466;2023-07-09T06:48:15;28.10;61.80
18974;DHT22;9621;48.690;9.466;2023-07-09T06:50:44;28.30;61.90
18974;DHT22;9621;48.690;9.466;2023-07-09T06:53:11;28.40;61.80
18974;DHT22;9621;48.690;9.466;2023-07-09T06:55:38;28.60;61.50
18974;DHT22;9621;48.690;9.466;2023-07-09T06:58:05;28.80;61.80
18974;DHT22;9621;48.690;9.466;2023-07-09T07:00:33;29.10;60.80
18974;DHT22;9621;48.690;9.466;2023-07-09T07:03:01;29.40;60.30
18974;DHT22;9621;48.690;9.466;2023-07-09T07:05:28;29.60;59.90
18974;DHT22;9621;48.690;9.466;2023-07-09T07:07:56;29.90;59.00
18974;DHT22;9621;48.690;9.466;2023-07-09T07:10:23;30.10;58.00
18974;DHT22;9621;48.690;9.466;2023-07-09T07:12:52;30.30;57.70
18974;DHT22;9621;48.690;9.466;2023-07-09T07:15:19;30.60;57.60
18974;DHT22;9621;48.690;9.466;2023-07-09T07:17:46;30.80;57.10
18974;DHT22;9621;48.690;9.466;2023-07-09T07:20:15;31.00;56.10
18974;DHT22;9621;48.690;9.466;2023-07-09T07:22:42;31.00;55.40
18974;DHT22;9621;48.690;9.466;2023-07-09T07:25:10;31.00;55.40
18974;DHT22;9621;48.690;9.466;2023-07-09T07:27:38;31.10;55.30
18974;DHT22;9621;48.690;9.466;2023-07-09T07:30:06;31.30;55.20
18974;DHT22;9621;48.690;9.466;2023-07-09T07:32:35;31.40;55.10
18974;DHT22;9621;48.690;9.466;2023-07-09T07:35:03;31.70;55.00
18974;DHT22;9621;48.690;9.466;2023-07-09T07:37:30;32.10;54.80
18974;DHT22;9621;48.690;9.466;2023-07-09T07:39:56;32.40;53.80
18974;DHT22;9621;48.690;9.466;2023-07-09T07:42:25;32.60;52.30
18974;DHT22;9621;48.690;9.466;2023-07-09T07:44:51;32.70;51.60
18974;DHT22;9621;48.690;9.466;2023-07-09T07:47:19;32.70;51.80
18974;DHT22;9621;48.690;9.466;2023-07-09T07:49:46;32.80;51.90
18974;DHT22;9621;48.690;9.466;2023-07-09T07:52:13;33.00;52.30
18974;DHT22;9621;48.690;9.466;2023-07-09T07:54:40;33.20;51.40
18974;DHT22;9621;48.690;9.466;2023-07-09T07:57:07;33.40;50.70
18974;DHT22;9621;48.690;9.466;2023-07-09T07:59:36;33.60;50.40
18974;DHT22;9621;48.690;9.466;2023-07-09T08:02:04;33.80;49.70
18974;DHT22;9621;48.690;9.466;2023-07-09T08:04:32;34.00;49.10
18974;DHT22;9621;48.690;9.466;2023-07-09T08:06:59;34.20;49.00
18974;DHT22;9621;48.690;9.466;2023-07-09T08:09:25;34.30;48.40
18974;DHT22;9621;48.690;9.466;2023-07-09T08:11:52;34.30;48.00
18974;DHT22;9621;48.690;9.466;2023-07-09T08:14:19;34.30;47.60
18974;DHT22;9621;48.690;9.466;2023-07-09T08:16:48;34.30;47.60
18974;DHT22;9621;48.690;9.466;2023-07-09T08:19:18;34.40;47.10
18974;DHT22;9621;48.690;9.466;2023-07-09T08:21:45;34.40;47.20
18974;DHT22;9621;48.690;9.466;2023-07-09T08:24:12;34.50;47.10
18974;DHT22;9621;48.690;9.466;2023-07-09T08:26:39;34.70;46.70
18974;DHT22;9621;48.690;9.466;2023-07-09T08:29:06;34.90;47.00
18974;DHT22;9621;48.690;9.466;2023-07-09T08:31:33;35.00;45.50
18974;DHT22;9621;48.690;9.466;2023-07-09T08:34:02;35.10;44.80
18974;DHT22;9621;48.690;9.466;2023-07-09T08:36:29;35.10;45.00
18974;DHT22;9621;48.690;9.466;2023-07-09T08:38:56;35.10;45.40
18974;DHT22;9621;48.690;9.466;2023-07-09T08:41:35;35.30;44.80
18974;DHT22;9621;48.690;9.466;2023-07-09T08:44:22;35.40;44.20
18974;DHT22;9621;48.690;9.466;2023-07-09T08:46:58;35.60;43.40
18974;DHT22;9621;48.690;9.466;2023-07-09T08:49:35;35.60;43.20
18974;DHT22;9621;48.690;9.466;2023-07-09T08:52:10;35.60;42.60
18974;DHT22;9621;48.690;9.466;2023-07-09T08:54:39;35.60;41.70
18974;DHT22;9621;48.690;9.466;2023-07-09T08:57:17;35.60;43.00
18974;DHT22;9621;48.690;9.466;2023-07-09T08:59:45;35.60;42.80
18974;DHT22;9621;48.690;9.466;2023-07-09T09:02:17;35.70;42.80
18974;DHT22;9621;48.690;9.466;2023-07-09T09:04:49;35.80;42.10
18974;DHT22;9621;48.690;9.466;2023-07-09T09:07:19;35.80;42.20
18974;DHT22;9621;48.690;9.466;2023-07-09T09:09:55;35.90;41.90
18974;DHT22;9621;48.690;9.466;2023-07-09T09:12:27;36.00;41.60
18974;DHT22;9621;48.690;9.466;2023-07-09T09:14:58;36.20;41.60
18974;DHT22;9621;48.690;9.466;2023-07-09T09:17:27;36.40;40.80
18974;DHT22;9621;48.690;9.466;2023-07-09T09:19:59;36.70;40.60
18974;DHT22;9621;48.690;9.466;2023-07-09T09:22:30;37.00;40.30
18974;DHT22;9621;48.690;9.466;2023-07-09T09:25:03;37.10;39.70
18974;DHT22;9621;48.690;9.466;2023-07-09T09:27:31;37.40;38.40
18974;DHT22;9621;48.690;9.466;2023-07-09T09:29:58;37.50;39.00
18974;DHT22;9621;48.690;9.466;2023-07-09T09:32:27;37.60;39.20
18974;DHT22;9621;48.690;9.466;2023-07-09T09:34:56;37.60;38.90
18974;DHT22;9621;48.690;9.466;2023-07-09T09:37:28;37.70;38.20
18974;DHT22;9621;48.690;9.466;2023-07-09T09:39:55;37.80;37.50
18974;DHT22;9621;48.690;9.466;2023-07-09T09:42:23;37.80;37.00
18974;DHT22;9621;48.690;9.466;2023-07-09T09:44:53;37.80;37.00
18974;DHT22;9621;48.690;9.466;2023-07-09T09:47:21;37.70;37.10
18974;DHT22;9621;48.690;9.466;2023-07-09T09:49:48;37.70;37.10
18974;DHT22;9621;48.690;9.466;2023-07-09T09:52:18;37.50;36.60
18974;DHT22;9621;48.690;9.466;2023-07-09T09:54:49;37.40;36.00
18974;DHT22;9621;48.690;9.466;2023-07-09T09:57:20;37.30;35.70
18974;DHT22;9621;48.690;9.466;2023-07-09T09:59:48;37.30;36.80
18974;DHT22;9621;48.690;9.466;2023-07-09T10:02:17;37.40;36.10
18974;DHT22;9621;48.690;9.466;2023-07-09T10:04:45;37.50;36.10
18974;DHT22;9621;48.690;9.466;2023-07-09T10:07:23;37.60;35.90
18974;DHT22;9621;48.690;9.466;2023-07-09T10:09:54;37.70;35.60
18974;DHT22;9621;48.690;9.466;2023-07-09T10:12:34;37.70;35.70
18974;DHT22;9621;48.690;9.466;2023-07-09T10:15:14;37.70;36.90
18974;DHT22;9621;48.690;9.466;2023-07-09T10:17:52;37.60;35.40
18974;DHT22;9621;48.690;9.466;2023-07-09T10:20:24;37.60;34.60
18974;DHT22;9621;48.690;9.466;2023-07-09T10:22:56;37.50;35.10
18974;DHT22;9621;48.690;9.466;2023-07-09T10:25:31;37.50;35.00
18974;DHT22;9621;48.690;9.466;2023-07-09T10:28:16;37.70;35.00
18974;DHT22;9621;48.690;9.466;2023-07-09T10:30:51;37.80;34.70
18974;DHT22;9621;48.690;9.466;2023-07-09T10:33:26;37.80;34.80
18974;DHT22;9621;48.690;9.466;2023-07-09T10:35:59;37.90;34.20
18974;DHT22;9621;48.690;9.466;2023-07-09T10:38:40;38.10;34.60
18974;DHT22;9621;48.690;9.466;2023-07-09T10:41:12;38.20;34.30
18974;DHT22;9621;48.690;9.466;2023-07-09T10:43:44;38.30;34.40
18974;DHT22;9621;48.690;9.466;2023-07-09T10:46:14;38.40;34.40
18974;DHT22;9621;48.690;9.466;2023-07-09T10:48:44;38.50;33.70
18974;DHT22;9621;48.690;9.466;2023-07-09T10:51:19;38.40;34.10
18974;DHT22;9621;48.690;9.466;2023-07-09T10:53:51;38.40;34.00
18974;DHT22;9621;48.690;9.466;2023-07-09T10:56:21;38.30;33.70
18974;DHT22;9621;48.690;9.466;2023-07-09T10:58:53;38.20;34.30
18974;DHT22;9621;48.690;9.466;2023-07-09T11:01:28;38.20;33.90
18974;DHT22;9621;48.690;9.466;2023-07-09T11:04:00;38.30;33.30
18974;DHT22;9621;48.690;9.466;2023-07-09T11:06:31;38.30;34.40
18974;DHT22;9621;48.690;9.466;2023-07-09T11:09:02;38.40;34.30
18974;DHT22;9621;48.690;9.466;2023-07-09T11:11:34;38.70;34.60
18974;DHT22;9621;48.690;9.466;2023-07-09T11:14:08;38.80;33.30
18974;DHT22;9621;48.690;9.466;2023-07-09T11:16:39;39.00;33.00
18974;DHT22;9621;48.690;9.466;2023-07-09T11:19:15;39.10;32.90
18974;DHT22;9621;48.690;9.466;2023-07-09T11:21:45;39.30;32.30
18974;DHT22;9621;48.690;9.466;2023-07-09T11:24:31;39.50;32.70
18974;DHT22;9621;48.690;9.466;2023-07-09T11:26:58;39.60;32.10
18974;DHT22;9621;48.690;9.466;2023-07-09T11:29:27;39.70;32.60
18974;DHT22;9621;48.690;9.466;2023-07-09T11:31:54;39.60;32.00
18974;DHT22;9621;48.690;9.466;2023-07-09T11:34:27;39.50;32.70
18974;DHT22;9621;48.690;9.466;2023-07-09T11:36:57;39.60;32.50
18974;DHT22;9621;48.690;9.466;2023-07-09T11:39:30;39.70;31.90
18974;DHT22;9621;48.690;9.466;2023-07-09T11:41:58;39.70;31.50
18974;DHT22;9621;48.690;9.466;2023-07-09T11:44:26;39.80;32.20
18974;DHT22;9621;48.690;9.466;2023-07-09T11:47:13;39.80;31.10
18974;DHT22;9621;48.690;9.466;2023-07-09T11:49:49;39.60;30.80
18974;DHT22;9621;48.690;9.466;2023-07-09T11:52:22;39.50;31.70
18974;DHT22;9621;48.690;9.466;2023-07-09T11:54:52;39.40;31.90
18974;DHT22;9621;48.690;9.466;2023-07-09T11:57:20;39.50;32.90
18974;DHT22;9621;48.690;9.466;2023-07-09T11:59:46;39.60;32.80
18974;DHT22;9621;48.690;9.466;2023-07-09T12:02:18;39.70;31.80
18974;DHT22;9621;48.690;9.466;2023-07-09T12:04:48;39.80;31.30
18974;DHT22;9621;48.690;9.466;2023-07-09T12:07:16;39.80;30.70
18974;DHT22;9621;48.690;9.466;2023-07-09T12:09:51;39.70;30.00
18974;DHT22;9621;48.690;9.466;2023-07-09T12:12:21;39.50;29.70
18974;DHT22;9621;48.690;9.466;2023-07-09T12:14:49;39.40;30.60
18974;DHT22;9621;48.690;9.466;2023-07-09T12:17:17;39.40;30.40
18974;DHT22;9621;48.690;9.466;2023-07-09T12:19:44;39.30;30.00
18974;DHT22;9621;48.690;9.466;2023-07-09T12:22:17;39.30;30.30
18974;DHT22;9621;48.690;9.466;2023-07-09T12:24:46;39.30;30.40
18974;DHT22;9621;48.690;9.466;2023-07-09T12:27:21;39.30;30.50
18974;DHT22;9621;48.690;9.466;2023-07-09T12:29:52;39.30;30.10
18974;DHT22;9621;48.690;9.466;2023-07-09T12:32:19;39.30;31.20
18974;DHT22;9621;48.690;9.466;2023-07-09T12:34:50;39.20;30.30
18974;DHT22;9621;48.690;9.466;2023-07-09T12:37:18;39.20;30.10
18974;DHT22;9621;48.690;9.466;2023-07-09T12:39:49;39.20;30.10
18974;DHT22;9621;48.690;9.466;2023-07-09T12:42:23;39.00;30.00
18974;DHT22;9621;48.690;9.466;2023-07-09T12:44:51;38.90;30.10
18974;DHT22;9621;48.690;9.466;2023-07-09T12:47:21;38.80;30.50
18974;DHT22;9621;48.690;9.466;2023-07-09T12:49:50;38.60;30.40
18974;DHT22;9621;48.690;9.466;2023-07-09T12:52:19;38.50;30.70
18974;DHT22;9621;48.690;9.466;2023-07-09T12:54:55;38.40;30.70
18974;DHT22;9621;48.690;9.466;2023-07-09T12:57:25;38.30;30.40
18974;DHT22;9621;48.690;9.466;2023-07-09T12:59:54;38.10;31.70
18974;DHT22;9621;48.690;9.466;2023-07-09T13:02:23;37.90;31.00
18974;DHT22;9621;48.690;9.466;2023-07-09T13:04:59;37.80;31.60
18974;DHT22;9621;48.690;9.466;2023-07-09T13:07:31;37.70;31.60
18974;DHT22;9621;48.690;9.466;2023-07-09T13:10:06;38.00;32.00
18974;DHT22;9621;48.690;9.466;2023-07-09T13:12:39;38.20;31.30
18974;DHT22;9621;48.690;9.466;2023-07-09T13:15:23;38.40;30.80
18974;DHT22;9621;48.690;9.466;2023-07-09T13:17:56;38.50;30.70
18974;DHT22;9621;48.690;9.466;2023-07-09T13:20:23;38.70;30.40
18974;DHT22;9621;48.690;9.466;2023-07-09T13:22:50;38.70;30.30
18974;DHT22;9621;48.690;9.466;2023-07-09T13:25:17;38.80;30.60
18974;DHT22;9621;48.690;9.466;2023-07-09T13:27:46;39.10;30.90
18974;DHT22;9621;48.690;9.466;2023-07-09T13:30:13;39.40;30.00
18974;DHT22;9621;48.690;9.466;2023-07-09T13:32:40;39.50;29.90
18974;DHT22;9621;48.690;9.466;2023-07-09T13:35:13;39.60;30.00
18974;DHT22;9621;48.690;9.466;2023-07-09T13:37:40;39.70;29.70
18974;DHT22;9621;48.690;9.466;2023-07-09T13:40:11;39.80;30.00
18974;DHT22;9621;48.690;9.466;2023-07-09T13:42:39;39.90;29.20
18974;DHT22;9621;48.690;9.466;2023-07-09T13:45:16;39.90;29.80
18974;DHT22;9621;48.690;9.466;2023-07-09T13:47:43;39.90;28.90
18974;DHT22;9621;48.690;9.466;2023-07-09T13:50:10;39.80;29.80
18974;DHT22;9621;48.690;9.466;2023-07-09T13:52:37;39.80;30.00
18974;DHT22;9621;48.690;9.466;2023-07-09T13:55:05;39.80;29.20
18974;DHT22;9621;48.690;9.466;2023-07-09T13:57:32;39.70;29.10
18974;DHT22;9621;48.690;9.466;2023-07-09T13:59:59;39.50;29.60
18974;DHT22;9621;48.690;9.466;2023-07-09T14:02:29;39.20;29.10
18974;DHT22;9621;48.690;9.466;2023-07-09T14:04:58;38.80;29.10
18974;DHT22;9621;48.690;9.466;2023-07-09T14:07:27;38.50;30.00
18974;DHT22;9621;48.690;9.466;2023-07-09T14:09:55;38.20;29.50
18974;DHT22;9621;48.690;9.466;2023-07-09T14:12:22;37.90;30.00
18974;DHT22;9621;48.690;9.466;2023-07-09T14:14:50;37.50;30.20
18974;DHT22;9621;48.690;9.466;2023-07-09T14:17:18;37.20;30.50
18974;DHT22;9621;48.690;9.466;2023-07-09T14:19:46;36.90;30.90
18974;DHT22;9621;48.690;9.466;2023-07-09T14:22:22;36.70;31.60
18974;DHT22;9621;48.690;9.466;2023-07-09T14:24:51;36.40;32.00
18974;DHT22;9621;48.690;9.466;2023-07-09T14:27:18;36.30;32.00
18974;DHT22;9621;48.690;9.466;2023-07-09T14:29:45;36.30;32.10
18974;DHT22;9621;48.690;9.466;2023-07-09T14:32:32;36.60;32.00
18974;DHT22;9621;48.690;9.466;2023-07-09T14:35:01;36.90;33.30
18974;DHT22;9621;48.690;9.466;2023-07-09T14:37:28;37.40;33.10
18974;DHT22;9621;48.690;9.466;2023-07-09T14:39:56;37.90;31.70
18974;DHT22;9621;48.690;9.466;2023-07-09T14:42:22;38.30;31.30
18974;DHT22;9621;48.690;9.466;2023-07-09T14:44:50;38.70;31.40
18974;DHT22;9621;48.690;9.466;2023-07-09T14:47:18;39.00;30.20
18974;DHT22;9621;48.690;9.466;2023-07-09T14:49:46;39.10;29.60
18974;DHT22;9621;48.690;9.466;2023-07-09T14:52:16;39.20;29.50
18974;DHT22;9621;48.690;9.466;2023-07-09T14:54:45;39.30;29.10
18974;DHT22;9621;48.690;9.466;2023-07-09T14:57:19;39.10;29.00
18974;DHT22;9621;48.690;9.466;2023-07-09T14:59:47;38.80;28.50
18974;DHT22;9621;48.690;9.466;2023-07-09T15:02:23;38.60;28.90
18974;DHT22;9621;48.690;9.466;2023-07-09T15:04:51;38.30;29.10
18974;DHT22;9621;48.690;9.466;2023-07-09T15:07:20;38.00;29.10
18974;DHT22;9621;48.690;9.466;2023-07-09T15:09:47;37.90;29.20
18974;DHT22;9621;48.690;9.466;2023-07-09T15:12:25;37.80;29.20
18974;DHT22;9621;48.690;9.466;2023-07-09T15:14:53;37.70;29.90
18974;DHT22;9621;48.690;9.466;2023-07-09T15:17:22;37.70;29.50
18974;DHT22;9621;48.690;9.466;2023-07-09T15:19:48;37.70;29.70
18974;DHT22;9621;48.690;9.466;2023-07-09T15:22:24;37.60;29.60
18974;DHT22;9621;48.690;9.466;2023-07-09T15:24:52;37.60;29.40
18974;DHT22;9621;48.690;9.466;2023-07-09T15:27:19;37.60;29.80
18974;DHT22;9621;48.690;9.466;2023-07-09T15:29:45;37.70;29.50
18974;DHT22;9621;48.690;9.466;2023-07-09T15:32:12;37.80;29.90
18974;DHT22;9621;48.690;9.466;2023-07-09T15:34:39;37.90;29.50
18974;DHT22;9621;48.690;9.466;2023-07-09T15:37:12;38.00;29.80
18974;DHT22;9621;48.690;9.466;2023-07-09T15:39:41;38.00;29.50
18974;DHT22;9621;48.690;9.466;2023-07-09T15:42:11;37.80;29.50
18974;DHT22;9621;48.690;9.466;2023-07-09T15:44:39;37.70;29.50
18974;DHT22;9621;48.690;9.466;2023-07-09T15:47:16;37.60;29.80
18974;DHT22;9621;48.690;9.466;2023-07-09T15:49:44;37.40;29.90
18974;DHT22;9621;48.690;9.466;2023-07-09T15:52:11;37.30;30.10
18974;DHT22;9621;48.690;9.466;2023-07-09T15:54:38;37.00;29.90
18974;DHT22;9621;48.690;9.466;2023-07-09T15:57:08;36.80;29.80